Lochristi, Belgium
Current Conditions -  °F | °C
As of 8:55 AM on Monday 26 Jan 2015 (Local Time) from EHFS Reporting Station
Overcast Overcast  
Wind Chill: 37°   Ceiling: 900
Heat Index: 45°   Visibility: 4mi
Dew Point: 45°   Wind: 17mph
Humidity: 100%   Direction: 260°W
Pressure: 30.12"   Gusts: NA
Location:  51.1°N, 3.83°E
Report Text: EHFS 260755Z AUTO 26015KT 7000 BKN009/// OVC010/// 07/07 Q1020
Loading
Personal Weather Stations






























Interactive Weather Map New forecast layout! Learn more

10-Day Weather Forecast

Advertisements
Track Severe Weather on mobile